Cap Cleveland — A8MA9 — position and weather

sailwx.info

Track history (hours):
 
Tides and Currents Weather Stations Pressure Air Temp Water Temp Dewpoint Dewpoint Depression Visibility Wind Speed Wind Dir Waves Ship Positions

Cap Cleveland

Last reported at 2018-Feb-08 18:00 UTC. Time now 2018-Feb-20 05:37 UTC.
Position N 09°11' W 079°53'.
Warning: this ship's position is 11 days out of date.

Type: Ship (hazmat cat A). MMSI: 636018378.

Date/timePositionNaut miles runAvg speedWind from/ knotsBaromVisibWave heightAir tempDewpointWater temp
2018-Feb-08 18:00N 09°11' W 079°53'3 6.5
2018-Feb-08 17:30N 09°14' W 079°55'3 5.1
2018-Feb-08 17:00N 09°16' W 079°55'0 0.4
2018-Feb-08 16:30N 09°16' W 079°55'0 0.4
2018-Feb-08 16:00N 09°17' W 079°55'0 0.3
2018-Feb-08 15:00N 09°17' W 079°55'1 1.3
2018-Feb-08 14:30N 09°18' W 079°55'2 4.5
2018-Feb-08 14:00N 09°20' W 079°55'3 6.5
2018-Feb-08 13:30N 09°23' W 079°55'  
2018-Feb-03 21:45N 25°17' W 079°47'312.6
2018-Feb-03 21:29N 25°20' W 079°48'612.6
2018-Feb-03 21:00N 25°26' W 079°51'612.3
2018-Feb-03 20:31N 25°31' W 079°54'612.1
2018-Feb-03 20:00N 25°37' W 079°57'14 9.3
2018-Feb-03 18:29N 25°46' W 080°09'0 0.0
2018-Feb-03 17:59N 25°46' W 080°09'0 0.0
2018-Feb-03 17:29N 25°46' W 080°09'0 0.0
2018-Feb-03 16:59N 25°46' W 080°09'0 0.0
2018-Feb-03 15:59N 25°46' W 080°09'0 0.0
2018-Feb-03 15:29N 25°46' W 080°09'0 0.0
2018-Feb-03 14:59N 25°46' W 080°09'0 0.0
2018-Feb-03 14:29N 25°46' W 080°09'0 0.0
2018-Feb-03 13:59N 25°46' W 080°09'0 0.0
2018-Feb-03 13:26N 25°46' W 080°09'0 0.0
2018-Feb-03 12:59N 25°46' W 080°09'0 0.0
2018-Feb-03 12:27N 25°46' W 080°09'0 0.6
2018-Feb-03 12:00N 25°46' W 080°09'4 7.0
2018-Feb-03 11:31N 25°46' W 080°05'4 7.1
2018-Feb-03 11:00N 25°46' W 080°01'4 7.2
2018-Feb-03 10:30N 25°50' W 079°59'5 9.7
2018-Feb-03 10:01N 25°54' W 079°57'5 9.8
2018-Feb-03 09:30N 25°58' W 079°54'510.0
2018-Feb-03 09:01N 26°03' W 079°52'5 9.9
2018-Feb-03 08:31N 26°07' W 079°50'5 9.9
2018-Feb-03 08:01N 26°12' W 079°50'14 9.6
2018-Feb-03 06:31N 26°27' W 079°48'5 9.8
2018-Feb-03 06:01N 26°32' W 079°48'2010.1
2018-Feb-03 04:00N 26°52' W 079°46'810.2
2018-Feb-03 03:12N 26°60' W 079°46'26212.5
2018-Feb-02 06:17N 31°20' W 080°19'515.7
2018-Feb-02 05:59N 31°25' W 080°21'915.9
2018-Feb-02 05:27N 31°33' W 080°25'1015.8
2018-Feb-02 04:49N 31°42' W 080°30'516.0
2018-Feb-02 04:30N 31°46' W 080°33'611.4
2018-Feb-02 04:00N 31°51' W 080°36'510.0
2018-Feb-02 03:30N 31°55' W 080°39'5 9.4
2018-Feb-02 03:00N 31°58' W 080°44'714.2
2018-Feb-02 02:30N 32°02' W 080°51'611.1
2018-Feb-02 02:00N 32°04' W 080°57'5 9.0
2018-Feb-02 01:30N 32°05' W 081°02'3 6.2
2018-Feb-02 01:00N 32°05' W 081°06'3 5.5
2018-Feb-02 00:30N 32°07' W 081°08'0 0.4
2018-Feb-01 23:57N 32°07' W 081°08'0 0.0
2018-Feb-01 23:27N 32°07' W 081°08'0 0.0
2018-Feb-01 22:57N 32°07' W 081°08'0 0.0
2018-Feb-01 21:51N 32°07' W 081°08'0 0.0
2018-Feb-01 21:27N 32°07' W 081°08'0 0.0
2018-Feb-01 19:27N 32°07' W 081°08'0 0.0
2018-Feb-01 18:57N 32°07' W 081°08'0 0.0
2018-Feb-01 18:27N 32°07' W 081°08'0 0.0
2018-Feb-01 17:57N 32°07' W 081°08'0 0.0
2018-Feb-01 17:27N 32°07' W 081°08'0 0.0
2018-Feb-01 16:57N 32°07' W 081°08'0 0.0
2018-Feb-01 16:27N 32°07' W 081°08'0 0.0
2018-Feb-01 15:57N 32°07' W 081°08'0 0.0
2018-Feb-01 15:27N 32°07' W 081°08'0 0.0
2018-Feb-01 14:57N 32°07' W 081°08'0 0.0
2018-Feb-01 13:27N 32°07' W 081°08'0 0.0
2018-Feb-01 12:57N 32°07' W 081°08'0 0.0
2018-Feb-01 12:30N 32°07' W 081°08'1 1.4
2018-Feb-01 12:00N 32°08' W 081°08'5 5.5
2018-Feb-01 11:00N 32°05' W 081°03'510.1
2018-Feb-01 10:30N 32°04' W 080°57'713.8
2018-Feb-01 10:00N 32°02' W 080°49'815.3
2018-Feb-01 09:28N 31°58' W 080°41'56313.2
2018-Jan-30 14:58N 39°31' W 073°50'715.8
2018-Jan-30 14:30N 39°38' W 073°50'3414.6
2018-Jan-30 12:11N 40°12' W 073°50'2 9.7
2018-Jan-30 11:58N 40°14' W 073°50'3 6.4
2018-Jan-30 11:29N 40°17' W 073°49'8 8.2
2018-Jan-30 10:30N 40°25' W 073°49'1211.9
2018-Jan-30 09:30N 40°33' W 074°02'613.0
2018-Jan-30 09:01N 40°39' W 074°04'4 7.1
2018-Jan-30 08:31N 40°39' W 074°08'2 4.1
2018-Jan-30 08:00N 40°41' W 074°08'0 0.1
2018-Jan-30 07:28N 40°41' W 074°09'0 0.0
2018-Jan-30 06:58N 40°41' W 074°09'0 0.0
2018-Jan-30 06:28N 40°41' W 074°09'0 0.0
2018-Jan-30 05:58N 40°41' W 074°09'0 0.0
2018-Jan-30 05:28N 40°41' W 074°09'0 0.0
2018-Jan-30 04:58N 40°41' W 074°09'0 0.0
2018-Jan-30 04:28N 40°41' W 074°09'0 0.0
2018-Jan-30 03:58N 40°41' W 074°09'0 0.0
2018-Jan-30 03:28N 40°41' W 074°09'0 0.0
2018-Jan-30 02:58N 40°41' W 074°09'0 0.0
2018-Jan-30 02:28N 40°41' W 074°09'0 0.0
2018-Jan-30 01:58N 40°41' W 074°09'0 0.0
2018-Jan-30 01:28N 40°41' W 074°09'0 0.0
2018-Jan-30 00:58N 40°41' W 074°09'0 0.0
2018-Jan-30 00:28N 40°41' W 074°09'0 0.0
2018-Jan-29 23:58N 40°41' W 074°09'0 0.0
2018-Jan-29 23:28N 40°41' W 074°09'0 0.0
2018-Jan-29 22:58N 40°41' W 074°09'0 1.0
2018-Jan-29 22:30N 40°40' W 074°08'2 3.7
2018-Jan-29 22:00N 40°39' W 074°07'4 8.5
2018-Jan-29 21:30N 40°41' W 074°02'1 1.7
2018-Jan-29 21:00N 40°41' W 074°01'0 0.0
2018-Jan-29 20:30N 40°41' W 074°01'0 0.0
2018-Jan-29 20:00N 40°41' W 074°01'0 0.0
2018-Jan-29 19:30N 40°41' W 074°01'0 0.0
2018-Jan-29 19:00N 40°41' W 074°01'0 0.0
2018-Jan-29 18:30N 40°41' W 074°01'  
Track history (hours):
 
Tides and Currents Weather Stations Pressure Air Temp Water Temp Dewpoint Dewpoint Depression Visibility Wind Speed Wind Dir Waves Ship Positions

Cap Cleveland

Last reported at 2018-Feb-08 18:00 UTC. Time now 2018-Feb-20 05:37 UTC.
Position N 09°11' W 079°53'.
Warning: this ship's position is 11 days out of date.

Type: Ship (hazmat cat A). MMSI: 636018378.

Date/timePositionNaut miles runAvg speedWind from/ knotsBaromVisibWave heightAir tempDewpointWater temp
2018-Feb-08 18:00N 09°11' W 079°53'3 6.5
2018-Feb-08 17:30N 09°14' W 079°55'3 5.1
2018-Feb-08 17:00N 09°16' W 079°55'0 0.4
2018-Feb-08 16:30N 09°16' W 079°55'0 0.4
2018-Feb-08 16:00N 09°17' W 079°55'0 0.3
2018-Feb-08 15:00N 09°17' W 079°55'1 1.3
2018-Feb-08 14:30N 09°18' W 079°55'2 4.5
2018-Feb-08 14:00N 09°20' W 079°55'3 6.5
2018-Feb-08 13:30N 09°23' W 079°55'  
2018-Feb-03 21:45N 25°17' W 079°47'312.6
2018-Feb-03 21:29N 25°20' W 079°48'612.6
2018-Feb-03 21:00N 25°26' W 079°51'612.3
2018-Feb-03 20:31N 25°31' W 079°54'612.1
2018-Feb-03 20:00N 25°37' W 079°57'14 9.3
2018-Feb-03 18:29N 25°46' W 080°09'0 0.0
2018-Feb-03 17:59N 25°46' W 080°09'0 0.0
2018-Feb-03 17:29N 25°46' W 080°09'0 0.0
2018-Feb-03 16:59N 25°46' W 080°09'0 0.0
2018-Feb-03 15:59N 25°46' W 080°09'0 0.0
2018-Feb-03 15:29N 25°46' W 080°09'0 0.0
2018-Feb-03 14:59N 25°46' W 080°09'0 0.0
2018-Feb-03 14:29N 25°46' W 080°09'0 0.0
2018-Feb-03 13:59N 25°46' W 080°09'0 0.0
2018-Feb-03 13:26N 25°46' W 080°09'0 0.0
2018-Feb-03 12:59N 25°46' W 080°09'0 0.0
2018-Feb-03 12:27N 25°46' W 080°09'0 0.6
2018-Feb-03 12:00N 25°46' W 080°09'4 7.0
2018-Feb-03 11:31N 25°46' W 080°05'4 7.1
2018-Feb-03 11:00N 25°46' W 080°01'4 7.2
2018-Feb-03 10:30N 25°50' W 079°59'5 9.7
2018-Feb-03 10:01N 25°54' W 079°57'5 9.8
2018-Feb-03 09:30N 25°58' W 079°54'510.0
2018-Feb-03 09:01N 26°03' W 079°52'5 9.9
2018-Feb-03 08:31N 26°07' W 079°50'5 9.9
2018-Feb-03 08:01N 26°12' W 079°50'14 9.6
2018-Feb-03 06:31N 26°27' W 079°48'5 9.8
2018-Feb-03 06:01N 26°32' W 079°48'2010.1
2018-Feb-03 04:00N 26°52' W 079°46'810.2
2018-Feb-03 03:12N 26°60' W 079°46'26212.5
2018-Feb-02 06:17N 31°20' W 080°19'515.7
2018-Feb-02 05:59N 31°25' W 080°21'915.9
2018-Feb-02 05:27N 31°33' W 080°25'1015.8
2018-Feb-02 04:49N 31°42' W 080°30'516.0
2018-Feb-02 04:30N 31°46' W 080°33'611.4
2018-Feb-02 04:00N 31°51' W 080°36'510.0
2018-Feb-02 03:30N 31°55' W 080°39'5 9.4
2018-Feb-02 03:00N 31°58' W 080°44'714.2
2018-Feb-02 02:30N 32°02' W 080°51'611.1
2018-Feb-02 02:00N 32°04' W 080°57'5 9.0
2018-Feb-02 01:30N 32°05' W 081°02'3 6.2
2018-Feb-02 01:00N 32°05' W 081°06'3 5.5
2018-Feb-02 00:30N 32°07' W 081°08'0 0.4
2018-Feb-01 23:57N 32°07' W 081°08'0 0.0
2018-Feb-01 23:27N 32°07' W 081°08'0 0.0
2018-Feb-01 22:57N 32°07' W 081°08'0 0.0
2018-Feb-01 21:51N 32°07' W 081°08'0 0.0
2018-Feb-01 21:27N 32°07' W 081°08'0 0.0
2018-Feb-01 19:27N 32°07' W 081°08'0 0.0
2018-Feb-01 18:57N 32°07' W 081°08'0 0.0
2018-Feb-01 18:27N 32°07' W 081°08'0 0.0
2018-Feb-01 17:57N 32°07' W 081°08'0 0.0
2018-Feb-01 17:27N 32°07' W 081°08'0 0.0
2018-Feb-01 16:57N 32°07' W 081°08'0 0.0
2018-Feb-01 16:27N 32°07' W 081°08'0 0.0
2018-Feb-01 15:57N 32°07' W 081°08'0 0.0
2018-Feb-01 15:27N 32°07' W 081°08'0 0.0
2018-Feb-01 14:57N 32°07' W 081°08'0 0.0
2018-Feb-01 13:27N 32°07' W 081°08'0 0.0
2018-Feb-01 12:57N 32°07' W 081°08'0 0.0
2018-Feb-01 12:30N 32°07' W 081°08'1 1.4
2018-Feb-01 12:00N 32°08' W 081°08'5 5.5
2018-Feb-01 11:00N 32°05' W 081°03'510.1
2018-Feb-01 10:30N 32°04' W 080°57'713.8
2018-Feb-01 10:00N 32°02' W 080°49'815.3
2018-Feb-01 09:28N 31°58' W 080°41'56313.2
2018-Jan-30 14:58N 39°31' W 073°50'715.8
2018-Jan-30 14:30N 39°38' W 073°50'3414.6
2018-Jan-30 12:11N 40°12' W 073°50'2 9.7
2018-Jan-30 11:58N 40°14' W 073°50'3 6.4
2018-Jan-30 11:29N 40°17' W 073°49'8 8.2
2018-Jan-30 10:30N 40°25' W 073°49'1211.9
2018-Jan-30 09:30N 40°33' W 074°02'613.0
2018-Jan-30 09:01N 40°39' W 074°04'4 7.1
2018-Jan-30 08:31N 40°39' W 074°08'2 4.1
2018-Jan-30 08:00N 40°41' W 074°08'0 0.1
2018-Jan-30 07:28N 40°41' W 074°09'0 0.0
2018-Jan-30 06:58N 40°41' W 074°09'0 0.0
2018-Jan-30 06:28N 40°41' W 074°09'0 0.0
2018-Jan-30 05:58N 40°41' W 074°09'0 0.0
2018-Jan-30 05:28N 40°41' W 074°09'0 0.0
2018-Jan-30 04:58N 40°41' W 074°09'0 0.0
2018-Jan-30 04:28N 40°41' W 074°09'0 0.0
2018-Jan-30 03:58N 40°41' W 074°09'0 0.0
2018-Jan-30 03:28N 40°41' W 074°09'0 0.0
2018-Jan-30 02:58N 40°41' W 074°09'0 0.0
2018-Jan-30 02:28N 40°41' W 074°09'0 0.0
2018-Jan-30 01:58N 40°41' W 074°09'0 0.0
2018-Jan-30 01:28N 40°41' W 074°09'0 0.0
2018-Jan-30 00:58N 40°41' W 074°09'0 0.0
2018-Jan-30 00:28N 40°41' W 074°09'0 0.0
2018-Jan-29 23:58N 40°41' W 074°09'0 0.0
2018-Jan-29 23:28N 40°41' W 074°09'0 0.0
2018-Jan-29 22:58N 40°41' W 074°09'0 1.0
2018-Jan-29 22:30N 40°40' W 074°08'2 3.7
2018-Jan-29 22:00N 40°39' W 074°07'4 8.5
2018-Jan-29 21:30N 40°41' W 074°02'1 1.7
2018-Jan-29 21:00N 40°41' W 074°01'0 0.0
2018-Jan-29 20:30N 40°41' W 074°01'0 0.0
2018-Jan-29 20:00N 40°41' W 074°01'0 0.0
2018-Jan-29 19:30N 40°41' W 074°01'0 0.0
2018-Jan-29 19:00N 40°41' W 074°01'0 0.0
2018-Jan-29 18:30N 40°41' W 074°01'  

Dump ship's entire track history